Time;durP1;ratioP1;P1;durP2;ratioP2;P2;SDS_P1;SDS_P2;PMS_P1;PMS_P2;Temp;Humidity;BMP_temperature;BMP_pressure;BME280_temperature;BME280_humidity;BME280_pressure;Samples;Min_cycle;Max_cycle;Signal;HPM_P1;HPM_P2
2022/10/18 00:03:29;;;;;;;7.30;4.63;;;;;;;;;;10302559;28;20113;-75
2022/10/18 00:08:30;;;;;;;9.52;5.15;;;;;;;;;;10301414;28;20058;-73
2022/10/18 00:13:30;;;;;;;10.63;5.90;;;;;;;;;;10294029;28;20033;-80
2022/10/18 00:18:31;;;;;;;12.77;5.70;;;;;;;;;;10301544;28;20089;-75
2022/10/18 00:23:32;;;;;;;15.60;6.30;;;;;;;;;;10304008;28;20030;-76
2022/10/18 00:28:33;;;;;;;8.98;4.97;;;;;;;;;;10302279;28;20485;-73
2022/10/18 00:33:33;;;;;;;16.20;6.35;;;;;;;;;;10293611;28;20027;-73
2022/10/18 00:38:33;;;;;;;14.68;6.53;;;;;;;;;;10293214;28;20014;-77
2022/10/18 00:44:09;;;;;;;11.75;6.07;;;;;;;;;;10307378;28;20073;-75
2022/10/18 00:49:11;;;;;;;13.50;6.68;;;;;;;;;;10229535;28;20093;-79
2022/10/18 00:54:13;;;;;;;12.98;6.57;;;;;;;;;;10309443;28;20062;-75
2022/10/18 00:59:14;;;;;;;14.32;7.68;;;;;;;;;;10309505;28;20405;-76
2022/10/18 01:04:16;;;;;;;16.98;7.40;;;;;;;;;;10309412;28;20093;-77
2022/10/18 01:09:27;;;;;;;14.40;7.55;;;;;;;;;;10307825;28;20055;-77
2022/10/18 01:14:29;;;;;;;11.82;7.25;;;;;;;;;;10308133;28;20491;-83
2022/10/18 01:19:38;;;;;;;13.15;5.75;;;;;;;;;;10306407;28;20025;-75
2022/10/18 01:24:38;;;;;;;10.35;6.18;;;;;;;;;;10290109;28;20401;-76
2022/10/18 01:29:57;;;;;;;6.68;5.15;;;;;;;;;;10306472;28;20041;-76
2022/10/18 01:35:03;;;;;;;7.60;4.72;;;;;;;;;;10304248;28;20029;-79
2022/10/18 01:40:07;;;;;;;6.68;4.07;;;;;;;;;;10302519;28;20030;-79
2022/10/18 01:45:13;;;;;;;15.43;4.80;;;;;;;;;;10306517;28;20027;-81
2022/10/18 01:50:29;;;;;;;10.30;5.10;;;;;;;;;;10308004;28;20029;-75
2022/10/18 01:55:32;;;;;;;8.35;4.72;;;;;;;;;;10305938;28;20049;-78
2022/10/18 02:00:41;;;;;;;7.43;4.88;;;;;;;;;;10304417;28;20058;-74
2022/10/18 02:05:51;;;;;;;10.75;5.68;;;;;;;;;;10303185;28;20034;-73
2022/10/18 02:11:01;;;;;;;7.03;5.13;;;;;;;;;;10292429;28;131057;-77
2022/10/18 02:16:04;;;;;;;11.43;6.25;;;;;;;;;;10306426;28;20061;-75
2022/10/18 02:21:06;;;;;;;10.88;5.45;;;;;;;;;;10307511;28;20010;-75
2022/10/18 02:26:08;;;;;;;10.50;6.13;;;;;;;;;;10304610;28;20076;-79
2022/10/18 02:31:21;;;;;;;6.97;4.45;;;;;;;;;;10306015;28;20024;-74
2022/10/18 02:36:27;;;;;;;9.45;5.78;;;;;;;;;;10308507;28;20364;-75
2022/10/18 02:41:29;;;;;;;12.07;6.38;;;;;;;;;;10306422;28;20053;-74
2022/10/18 02:46:29;;;;;;;42.67;34.25;;;;;;;;;;10304874;28;20110;-75
2022/10/18 02:51:30;;;;;;;11.85;6.20;;;;;;;;;;10304977;28;20015;-80
2022/10/18 02:56:30;;;;;;;10.80;6.37;;;;;;;;;;10298501;28;20037;-75
2022/10/18 03:01:31;;;;;;;8.97;5.83;;;;;;;;;;10304605;28;20279;-75
2022/10/18 03:06:32;;;;;;;15.00;6.35;;;;;;;;;;10302405;28;20101;-77
2022/10/18 03:11:32;;;;;;;17.27;6.13;;;;;;;;;;10297468;28;20116;-76
2022/10/18 03:16:33;;;;;;;10.90;6.13;;;;;;;;;;10297838;28;20389;-80
2022/10/18 03:21:33;;;;;;;13.75;7.25;;;;;;;;;;10302886;28;20045;-75
2022/10/18 03:26:33;;;;;;;13.60;6.07;;;;;;;;;;10301914;28;20026;-78
2022/10/18 03:31:35;;;;;;;18.70;6.70;;;;;;;;;;10302641;28;20031;-80
2022/10/18 03:36:37;;;;;;;12.88;6.68;;;;;;;;;;10302905;28;20026;-73
2022/10/18 03:41:37;;;;;;;12.18;6.63;;;;;;;;;;10304723;28;20485;-82
2022/10/18 03:46:37;;;;;;;10.52;7.25;;;;;;;;;;10303799;28;20020;-80
2022/10/18 03:51:38;;;;;;;9.82;6.28;;;;;;;;;;10294715;28;20449;-82
2022/10/18 03:56:38;;;;;;;12.47;7.47;;;;;;;;;;10304466;28;20033;-77
2022/10/18 04:01:38;;;;;;;13.13;6.97;;;;;;;;;;10305137;28;20030;-79
2022/10/18 04:06:38;;;;;;;18.95;7.57;;;;;;;;;;10302331;28;20026;-75
2022/10/18 04:11:39;;;;;;;10.52;7.30;;;;;;;;;;10297635;28;20059;-80
2022/10/18 04:16:39;;;;;;;11.95;7.13;;;;;;;;;;10299599;28;20030;-78
2022/10/18 04:21:39;;;;;;;20.97;9.67;;;;;;;;;;10311441;28;20029;-73
2022/10/18 04:26:40;;;;;;;20.65;10.48;;;;;;;;;;10310172;28;20807;-73
2022/10/18 04:31:40;;;;;;;17.23;10.20;;;;;;;;;;10328991;28;20023;-77
2022/10/18 04:36:40;;;;;;;24.05;9.82;;;;;;;;;;10324515;28;20119;-75
2022/10/18 04:41:40;;;;;;;17.15;9.27;;;;;;;;;;10318996;28;20379;-74
2022/10/18 04:46:41;;;;;;;15.13;7.97;;;;;;;;;;10314883;28;20019;-78
2022/10/18 04:51:41;;;;;;;14.40;8.10;;;;;;;;;;10311397;28;20031;-79
2022/10/18 04:56:41;;;;;;;15.70;7.68;;;;;;;;;;10309117;28;20035;-75
2022/10/18 05:01:41;;;;;;;20.75;7.43;;;;;;;;;;10295943;28;20504;-76
2022/10/18 05:06:42;;;;;;;22.15;7.85;;;;;;;;;;10307871;28;20019;-78
2022/10/18 05:11:42;;;;;;;12.75;7.50;;;;;;;;;;10307647;28;20091;-75
2022/10/18 05:16:42;;;;;;;10.77;7.00;;;;;;;;;;10307229;28;20030;-75
2022/10/18 05:21:42;;;;;;;10.45;6.20;;;;;;;;;;10306645;28;20114;-82
2022/10/18 05:26:43;;;;;;;11.27;6.88;;;;;;;;;;10297106;28;20026;-80
2022/10/18 05:31:43;;;;;;;16.50;6.57;;;;;;;;;;10305895;28;20564;-76
2022/10/18 05:36:43;;;;;;;16.23;7.65;;;;;;;;;;10309474;28;20026;-75
2022/10/18 05:41:43;;;;;;;18.77;8.07;;;;;;;;;;10304966;28;20019;-80
2022/10/18 05:46:44;;;;;;;23.02;9.68;;;;;;;;;;10306672;28;20019;-76
2022/10/18 05:51:44;;;;;;;15.23;9.75;;;;;;;;;;10306020;28;20025;-74
2022/10/18 05:56:44;;;;;;;21.95;11.55;;;;;;;;;;10305824;28;20023;-77
2022/10/18 06:01:44;;;;;;;19.45;11.32;;;;;;;;;;10305980;28;20106;-74
2022/10/18 06:06:45;;;;;;;19.53;10.33;;;;;;;;;;10305165;28;20015;-75
2022/10/18 06:11:45;;;;;;;19.45;12.18;;;;;;;;;;10308302;28;20054;-76
2022/10/18 06:16:45;;;;;;;14.02;9.30;;;;;;;;;;10304527;28;20019;-76
2022/10/18 06:21:45;;;;;;;27.60;11.38;;;;;;;;;;10305292;28;20026;-80
2022/10/18 06:26:46;;;;;;;19.58;9.80;;;;;;;;;;10305114;28;20014;-82
2022/10/18 06:31:46;;;;;;;20.50;8.85;;;;;;;;;;10305984;28;20026;-75
2022/10/18 06:36:46;;;;;;;18.80;10.02;;;;;;;;;;10304367;28;20025;-81
2022/10/18 06:41:47;;;;;;;28.75;11.40;;;;;;;;;;10303251;28;20026;-74
2022/10/18 06:46:47;;;;;;;18.67;10.87;;;;;;;;;;10305217;28;20024;-76
2022/10/18 06:51:48;;;;;;;18.40;9.45;;;;;;;;;;10303973;28;20613;-75
2022/10/18 06:56:48;;;;;;;25.90;10.13;;;;;;;;;;10297386;28;20505;-75
2022/10/18 07:01:48;;;;;;;18.40;9.52;;;;;;;;;;10305006;28;20030;-75
2022/10/18 07:06:48;;;;;;;22.15;10.02;;;;;;;;;;10304750;28;20010;-80
2022/10/18 07:11:49;;;;;;;18.02;9.45;;;;;;;;;;10301449;28;20124;-82
2022/10/18 07:16:49;;;;;;;23.67;10.00;;;;;;;;;;10302815;28;20025;-75
2022/10/18 07:21:49;;;;;;;22.83;10.07;;;;;;;;;;10300364;28;20031;-76
2022/10/18 07:26:49;;;;;;;25.02;11.65;;;;;;;;;;10303321;28;20019;-77
2022/10/18 07:31:50;;;;;;;31.67;13.85;;;;;;;;;;10301703;28;20019;-80
2022/10/18 07:36:50;;;;;;;30.90;14.15;;;;;;;;;;10300946;28;20109;-76
2022/10/18 07:41:50;;;;;;;39.43;12.20;;;;;;;;;;10302548;28;20030;-76
2022/10/18 07:46:50;;;;;;;23.05;11.65;;;;;;;;;;10303942;28;20022;-80
2022/10/18 07:51:51;;;;;;;26.98;11.48;;;;;;;;;;10302603;28;20026;-77
2022/10/18 07:56:51;;;;;;;22.25;10.57;;;;;;;;;;10303316;28;20034;-75
2022/10/18 08:01:51;;;;;;;21.42;10.15;;;;;;;;;;10301765;28;20131;-75
2022/10/18 08:06:51;;;;;;;29.52;10.80;;;;;;;;;;10300587;28;20491;-81
2022/10/18 08:11:52;;;;;;;24.67;10.30;;;;;;;;;;10298036;28;20138;-79
2022/10/18 08:16:52;;;;;;;23.67;9.77;;;;;;;;;;10301838;28;20027;-76
2022/10/18 08:21:52;;;;;;;23.00;10.05;;;;;;;;;;10300939;28;20034;-81
2022/10/18 08:26:52;;;;;;;20.27;10.02;;;;;;;;;;10300067;28;20021;-76
2022/10/18 08:31:53;;;;;;;16.23;9.30;;;;;;;;;;10301822;28;20549;-77
2022/10/18 08:36:53;;;;;;;21.83;8.48;;;;;;;;;;10300547;28;20105;-79
2022/10/18 08:42:19;;;;;;;23.10;8.27;;;;;;;;;;10301075;28;20104;-80
2022/10/18 08:47:21;;;;;;;29.30;10.20;;;;;;;;;;10298623;28;20473;-76
2022/10/18 08:52:24;;;;;;;127.53;117.53;;;;;;;;;;10305247;28;20078;-79
2022/10/18 08:57:25;;;;;;;25.60;8.27;;;;;;;;;;10300867;28;20037;-76
2022/10/18 09:02:25;;;;;;;15.37;8.77;;;;;;;;;;10302883;28;20029;-78
2022/10/18 09:07:25;;;;;;;21.25;8.25;;;;;;;;;;10307379;28;20278;-79
2022/10/18 09:12:28;;;;;;;20.25;8.25;;;;;;;;;;10307965;28;20447;-77
2022/10/18 09:17:34;;;;;;;22.50;7.90;;;;;;;;;;10309194;28;20088;-74
2022/10/18 09:22:42;;;;;;;20.38;7.30;;;;;;;;;;10306025;28;20436;-83
2022/10/18 09:27:51;;;;;;;14.52;6.15;;;;;;;;;;10321787;28;20060;-81
2022/10/18 09:32:51;;;;;;;12.13;5.38;;;;;;;;;;10309218;28;20022;-84
2022/10/18 09:37:59;;;;;;;12.38;4.68;;;;;;;;;;10310988;28;20014;-79
2022/10/18 09:43:17;;;;;;;8.60;4.40;;;;;;;;;;10308740;28;20105;-76
2022/10/18 09:48:17;;;;;;;;;;;;;;;;;;10321972;28;20133;-76
2022/10/18 09:53:17;;;;;;;12.93;3.30;;;;;;;;;;10305142;28;19912;-74
2022/10/18 09:58:19;;;;;;;6.95;3.10;;;;;;;;;;10305797;28;20152;-75
2022/10/18 10:03:19;;;;;;;8.70;2.20;;;;;;;;;;10305392;28;20467;-84
2022/10/18 10:08:30;;;;;;;4.72;1.80;;;;;;;;;;10304720;28;20050;-75
2022/10/18 10:13:31;;;;;;;3.42;1.50;;;;;;;;;;10302213;28;20022;-80
2022/10/18 10:18:36;;;;;;;6.80;2.20;;;;;;;;;;10305452;28;20030;-79
2022/10/18 10:24:03;;;;;;;6.53;1.95;;;;;;;;;;10303291;28;20057;-77
2022/10/18 10:29:23;;;;;;;6.15;1.70;;;;;;;;;;10304819;28;20026;-83
2022/10/18 10:34:27;;;;;;;3.45;1.38;;;;;;;;;;10304532;28;20053;-76
2022/10/18 10:39:28;;;;;;;5.57;1.65;;;;;;;;;;10305420;28;20035;-77
2022/10/18 10:44:30;;;;;;;2.45;1.60;;;;;;;;;;10300741;28;20395;-81
2022/10/18 10:49:36;;;;;;;5.80;1.90;;;;;;;;;;10303537;28;20050;-79
2022/10/18 10:54:37;;;;;;;2.33;1.20;;;;;;;;;;10304299;28;20019;-81
2022/10/18 10:59:48;;;;;;;2.33;1.15;;;;;;;;;;10305204;28;20026;-83
2022/10/18 11:04:53;;;;;;;8.18;1.60;;;;;;;;;;10312811;28;20043;-82
2022/10/18 11:10:22;;;;;;;2.75;1.20;;;;;;;;;;10303419;28;20057;-81
2022/10/18 11:15:27;;;;;;;6.47;1.85;;;;;;;;;;10290703;28;20497;-81
2022/10/18 11:20:39;;;;;;;5.13;1.40;;;;;;;;;;10303975;28;20029;-80
2022/10/18 11:25:57;;;;;;;3.80;1.20;;;;;;;;;;10301993;28;20153;-75
2022/10/18 11:31:13;;;;;;;5.90;1.38;;;;;;;;;;10302739;28;20026;-80
2022/10/18 11:36:23;;;;;;;2.88;1.65;;;;;;;;;;10302727;28;20022;-77
2022/10/18 11:41:23;;;;;;;5.22;1.70;;;;;;;;;;10301404;28;20096;-76
2022/10/18 11:46:29;;;;;;;2.58;1.60;;;;;;;;;;10305218;28;20041;-75
2022/10/18 11:51:30;;;;;;;4.40;1.95;;;;;;;;;;10299918;28;20086;-76
2022/10/18 11:56:33;;;;;;;6.65;1.50;;;;;;;;;;10301572;28;20449;-78
2022/10/18 12:01:33;;;;;;;3.42;2.20;;;;;;;;;;10301531;28;20037;-75
2022/10/18 12:06:36;;;;;;;2.85;1.67;;;;;;;;;;10301526;28;20510;-75
2022/10/18 12:11:40;;;;;;;2.58;1.77;;;;;;;;;;10309928;28;20043;-75
2022/10/18 12:16:42;;;;;;;1.27;1.00;;;;;;;;;;10301506;28;20019;-77
2022/10/18 12:21:42;;;;;;;2.42;1.23;;;;;;;;;;10302796;28;20214;-79
2022/10/18 12:26:43;;;;;;;4.27;1.90;;;;;;;;;;10303350;28;20473;-76
2022/10/18 12:31:46;;;;;;;7.70;1.30;;;;;;;;;;10301871;28;20031;-74
2022/10/18 12:36:52;;;;;;;2.10;1.20;;;;;;;;;;10301476;28;20033;-76
2022/10/18 12:41:54;;;;;;;2.10;1.25;;;;;;;;;;10307989;28;20513;-76
2022/10/18 12:46:55;;;;;;;2.03;1.00;;;;;;;;;;10309629;28;20025;-75
2022/10/18 12:52:00;;;;;;;2.20;1.20;;;;;;;;;;10310023;28;20014;-83
2022/10/18 12:57:02;;;;;;;2.67;1.10;;;;;;;;;;10315323;28;20110;-82
2022/10/18 13:02:06;;;;;;;2.15;0.82;;;;;;;;;;10306274;28;20050;-81
2022/10/18 13:07:07;;;;;;;2.88;1.13;;;;;;;;;;10305260;28;20085;-75
2022/10/18 13:12:11;;;;;;;5.55;1.10;;;;;;;;;;10307284;28;20472;-76
2022/10/18 13:17:28;;;;;;;2.15;0.77;;;;;;;;;;10318836;28;20114;-74
2022/10/18 13:22:28;;;;;;;2.10;0.93;;;;;;;;;;10317662;28;20461;-78
2022/10/18 13:27:38;;;;;;;1.90;1.00;;;;;;;;;;10322982;28;20072;-79
2022/10/18 13:32:38;;;;;;;3.30;1.38;;;;;;;;;;10310365;28;20551;-80
2022/10/18 13:37:38;;;;;;;2.58;0.80;;;;;;;;;;10320032;28;20027;-75
2022/10/18 13:42:39;;;;;;;7.90;1.67;;;;;;;;;;10322291;28;20417;-76
2022/10/18 13:47:39;;;;;;;2.67;1.13;;;;;;;;;;10311657;28;20034;-76
2022/10/18 13:53:05;;;;;;;0.67;0.60;;;;;;;;;;10314770;28;20456;-75
2022/10/18 13:58:22;;;;;;;0.98;0.70;;;;;;;;;;10314317;28;20080;-78
2022/10/18 14:03:31;;;;;;;1.05;0.90;;;;;;;;;;10316076;28;20026;-76
2022/10/18 14:08:34;;;;;;;2.15;1.00;;;;;;;;;;10314038;28;20065;-80
2022/10/18 14:13:46;;;;;;;3.85;1.25;;;;;;;;;;10303962;28;20045;-82
2022/10/18 14:18:49;;;;;;;3.65;1.33;;;;;;;;;;10302889;28;20014;-81
2022/10/18 14:23:49;;;;;;;3.47;1.38;;;;;;;;;;10325778;28;20030;-76
2022/10/18 14:29:06;;;;;;;0.90;0.70;;;;;;;;;;10313822;28;20045;-77
2022/10/18 14:34:11;;;;;;;3.38;1.13;;;;;;;;;;10318904;28;20296;-76
2022/10/18 14:39:22;;;;;;;2.78;1.38;;;;;;;;;;10315395;28;20023;-77
2022/10/18 14:44:30;;;;;;;4.35;1.40;;;;;;;;;;10319470;28;20074;-77
2022/10/18 14:49:30;;;;;;;3.17;1.25;;;;;;;;;;10314010;28;20030;-76
2022/10/18 14:54:31;;;;;;;4.03;1.20;;;;;;;;;;10310788;28;20092;-79
2022/10/18 14:59:33;;;;;;;3.15;1.45;;;;;;;;;;10312551;28;20030;-76
2022/10/18 15:04:33;;;;;;;7.82;1.38;;;;;;;;;;10308124;28;20685;-77
2022/10/18 15:09:37;;;;;;;6.65;2.20;;;;;;;;;;10315571;28;20052;-77
2022/10/18 15:14:40;;;;;;;6.20;1.58;;;;;;;;;;10318251;28;20022;-78
2022/10/18 15:19:51;;;;;;;8.32;3.55;;;;;;;;;;10303882;28;20110;-76
2022/10/18 15:25:10;;;;;;;7.53;2.58;;;;;;;;;;10315720;28;20026;-83
2022/10/18 15:30:16;;;;;;;7.00;2.63;;;;;;;;;;10316130;28;20043;-76
2022/10/18 15:35:18;;;;;;;8.52;2.90;;;;;;;;;;10319522;28;20031;-77
2022/10/18 15:40:21;;;;;;;5.60;2.88;;;;;;;;;;10312806;28;20492;-80
2022/10/18 15:45:22;;;;;;;11.65;3.53;;;;;;;;;;10318746;28;20110;-77
2022/10/18 15:50:41;;;;;;;15.30;3.70;;;;;;;;;;10309077;28;20053;-75
2022/10/18 15:55:45;;;;;;;7.88;3.13;;;;;;;;;;10317840;28;20025;-83
2022/10/18 16:00:46;;;;;;;10.50;3.00;;;;;;;;;;10316734;28;20029;-77
2022/10/18 16:05:46;;;;;;;14.93;3.28;;;;;;;;;;10315345;28;20397;-76
2022/10/18 16:10:47;;;;;;;14.18;3.63;;;;;;;;;;10316776;28;20055;-76
2022/10/18 16:15:47;;;;;;;12.90;3.73;;;;;;;;;;10318051;28;20164;-77
2022/10/18 16:20:47;;;;;;;8.63;2.77;;;;;;;;;;10324525;28;20528;-81
2022/10/18 16:25:48;;;;;;;15.75;3.85;;;;;;;;;;10325364;28;20857;-80
2022/10/18 16:30:52;;;;;;;10.70;3.75;;;;;;;;;;10323087;28;20408;-75
2022/10/18 16:35:53;;;;;;;6.25;3.90;;;;;;;;;;10320362;28;20442;-76
2022/10/18 16:40:53;;;;;;;7.03;4.13;;;;;;;;;;10323140;28;20116;-76
2022/10/18 16:45:54;;;;;;;7.10;3.33;;;;;;;;;;10319397;28;20788;-75
2022/10/18 16:50:55;;;;;;;7.20;3.60;;;;;;;;;;10324489;28;20038;-80
2022/10/18 16:55:59;;;;;;;8.75;4.18;;;;;;;;;;10319832;28;20030;-77
2022/10/18 17:00:59;;;;;;;14.35;3.63;;;;;;;;;;10322797;28;20030;-77
2022/10/18 17:06:00;;;;;;;7.18;4.40;;;;;;;;;;10315736;28;20084;-77
2022/10/18 17:11:00;;;;;;;9.63;4.85;;;;;;;;;;10319633;28;20077;-76
2022/10/18 17:16:02;;;;;;;12.20;5.47;;;;;;;;;;10317004;28;20535;-76
2022/10/18 17:21:02;;;;;;;15.52;4.97;;;;;;;;;;10329425;28;20515;-75
2022/10/18 17:26:03;;;;;;;9.95;4.55;;;;;;;;;;10316753;28;20030;-75
2022/10/18 17:31:04;;;;;;;9.68;5.13;;;;;;;;;;10314548;28;20543;-79
2022/10/18 17:36:04;;;;;;;9.77;4.57;;;;;;;;;;10317469;28;20061;-81
2022/10/18 17:41:06;;;;;;;9.73;3.83;;;;;;;;;;10320629;28;20543;-81
2022/10/18 17:46:06;;;;;;;10.55;4.25;;;;;;;;;;10316678;28;20787;-75
2022/10/18 17:51:10;;;;;;;8.07;3.85;;;;;;;;;;10319767;28;20034;-83
2022/10/18 17:56:11;;;;;;;6.43;3.85;;;;;;;;;;10332400;28;20026;-75
2022/10/18 18:01:16;;;;;;;5.60;3.58;;;;;;;;;;10315071;28;20079;-74
2022/10/18 18:06:20;;;;;;;9.27;4.07;;;;;;;;;;10315440;28;20042;-79
2022/10/18 18:11:20;;;;;;;6.93;3.58;;;;;;;;;;10321899;28;20484;-81
2022/10/18 18:16:22;;;;;;;6.97;3.05;;;;;;;;;;10309710;28;20026;-79
2022/10/18 18:21:23;;;;;;;8.93;3.38;;;;;;;;;;10319086;28;20042;-80
2022/10/18 18:26:23;;;;;;;8.55;3.63;;;;;;;;;;10324685;28;20034;-81
2022/10/18 18:31:24;;;;;;;21.75;7.60;;;;;;;;;;10323870;28;20026;-75
2022/10/18 18:36:27;;;;;;;4.82;3.00;;;;;;;;;;10326536;28;20092;-75
2022/10/18 18:41:28;;;;;;;6.40;3.53;;;;;;;;;;10325208;28;20089;-79
2022/10/18 18:46:31;;;;;;;10.15;6.13;;;;;;;;;;10337850;28;20030;-74
2022/10/18 18:51:36;;;;;;;10.40;4.32;;;;;;;;;;10326544;28;20039;-79
2022/10/18 18:56:36;;;;;;;11.07;3.92;;;;;;;;;;10325647;28;20030;-78
2022/10/18 19:01:38;;;;;;;10.27;4.13;;;;;;;;;;10340321;28;20035;-75
2022/10/18 19:06:40;;;;;;;7.18;3.90;;;;;;;;;;10324711;28;20096;-75
2022/10/18 19:11:40;;;;;;;6.38;3.67;;;;;;;;;;10320046;28;20531;-75
2022/10/18 19:16:45;;;;;;;13.30;4.53;;;;;;;;;;10345799;28;20153;-77
2022/10/18 19:21:48;;;;;;;7.22;3.67;;;;;;;;;;10333308;28;20565;-78
2022/10/18 19:26:49;;;;;;;8.10;3.40;;;;;;;;;;10343967;28;20489;-76
2022/10/18 19:31:50;;;;;;;6.03;3.80;;;;;;;;;;10331607;28;20049;-76
2022/10/18 19:36:51;;;;;;;4.30;2.65;;;;;;;;;;10342562;28;20061;-76
2022/10/18 19:41:54;;;;;;;6.50;2.60;;;;;;;;;;10323309;28;20098;-74
2022/10/18 19:46:54;;;;;;;12.15;2.63;;;;;;;;;;10326548;28;20034;-75
2022/10/18 19:51:55;;;;;;;4.57;2.78;;;;;;;;;;10340285;28;20029;-79
2022/10/18 19:56:55;;;;;;;4.90;2.67;;;;;;;;;;10335156;28;20054;-79
2022/10/18 20:01:55;;;;;;;6.75;2.80;;;;;;;;;;10336426;28;20484;-82
2022/10/18 20:06:56;;;;;;;2.92;2.08;;;;;;;;;;10335483;28;20030;-79
2022/10/18 20:11:56;;;;;;;7.07;2.55;;;;;;;;;;10328374;28;20043;-79
2022/10/18 20:16:56;;;;;;;4.33;2.60;;;;;;;;;;10321789;28;20022;-79
2022/10/18 20:21:56;;;;;;;6.20;2.97;;;;;;;;;;10313124;28;20089;-79
2022/10/18 20:26:57;;;;;;;4.72;2.70;;;;;;;;;;10301552;28;20030;-79
2022/10/18 20:31:57;;;;;;;5.55;2.75;;;;;;;;;;10312929;28;20037;-84
2022/10/18 20:36:57;;;;;;;5.97;2.90;;;;;;;;;;10309797;28;20395;-80
2022/10/18 20:41:57;;;;;;;3.58;2.35;;;;;;;;;;10304090;28;20421;-78
2022/10/18 20:46:58;;;;;;;5.23;2.43;;;;;;;;;;10323879;28;20236;-79
2022/10/18 20:51:58;;;;;;;4.55;3.13;;;;;;;;;;10312313;28;20098;-81
2022/10/18 20:56:59;;;;;;;4.23;2.70;;;;;;;;;;10308960;28;20032;-80
2022/10/18 21:01:59;;;;;;;6.55;3.17;;;;;;;;;;10346892;28;20083;-79
2022/10/18 21:06:59;;;;;;;4.73;2.87;;;;;;;;;;10339877;28;20120;-80
2022/10/18 21:12:00;;;;;;;6.30;3.17;;;;;;;;;;10346232;28;20045;-80
2022/10/18 21:17:00;;;;;;;5.13;2.85;;;;;;;;;;10330749;28;20449;-80
2022/10/18 21:22:00;;;;;;;4.55;2.78;;;;;;;;;;10330520;28;20478;-78
2022/10/18 21:27:01;;;;;;;6.88;3.58;;;;;;;;;;10334628;28;20034;-79
2022/10/18 21:32:01;;;;;;;6.30;2.88;;;;;;;;;;10343139;28;20033;-75
2022/10/18 21:37:01;;;;;;;8.68;3.85;;;;;;;;;;10350720;28;20447;-74
2022/10/18 21:42:02;;;;;;;7.82;3.22;;;;;;;;;;10339298;28;20050;-76
2022/10/18 21:47:02;;;;;;;11.20;3.78;;;;;;;;;;10343662;28;20031;-76
2022/10/18 21:52:04;;;;;;;8.02;3.85;;;;;;;;;;10338544;28;20091;-80
2022/10/18 21:57:04;;;;;;;8.68;3.75;;;;;;;;;;10321210;28;20022;-76
2022/10/18 22:02:04;;;;;;;6.50;3.88;;;;;;;;;;10326238;28;20144;-81
2022/10/18 22:07:05;;;;;;;7.93;4.67;;;;;;;;;;10328103;28;20026;-82
2022/10/18 22:12:05;;;;;;;7.93;3.50;;;;;;;;;;10325913;28;20042;-76
2022/10/18 22:17:05;;;;;;;7.03;4.32;;;;;;;;;;10324269;28;20037;-77
2022/10/18 22:22:05;;;;;;;6.00;4.32;;;;;;;;;;10302340;28;20031;-74
2022/10/18 22:27:05;;;;;;;7.43;5.00;;;;;;;;;;10309770;28;20394;-73
2022/10/18 22:32:06;;;;;;;12.32;4.57;;;;;;;;;;10326564;28;20022;-75
2022/10/18 22:37:06;;;;;;;7.30;4.38;;;;;;;;;;10328284;28;20029;-79
2022/10/18 22:42:06;;;;;;;8.38;4.63;;;;;;;;;;10326080;28;20026;-81
2022/10/18 22:47:06;;;;;;;10.20;4.55;;;;;;;;;;10325785;28;20030;-82
2022/10/18 22:52:07;;;;;;;7.57;4.45;;;;;;;;;;10296849;28;20062;-77
2022/10/18 22:57:07;;;;;;;6.25;3.88;;;;;;;;;;10326666;28;20026;-76
2022/10/18 23:02:08;;;;;;;8.65;4.20;;;;;;;;;;10325831;28;20061;-79
2022/10/18 23:07:09;;;;;;;14.55;4.65;;;;;;;;;;10285554;28;20110;-75
2022/10/18 23:12:09;;;;;;;6.78;4.60;;;;;;;;;;10310194;28;20042;-83
2022/10/18 23:17:09;;;;;;;6.95;4.25;;;;;;;;;;10324644;28;20539;-72
2022/10/18 23:22:09;;;;;;;9.00;4.72;;;;;;;;;;10324091;28;20038;-74
2022/10/18 23:27:10;;;;;;;12.90;4.78;;;;;;;;;;10324868;28;20034;-75
2022/10/18 23:32:10;;;;;;;7.68;4.10;;;;;;;;;;10324501;28;20030;-75
2022/10/18 23:37:10;;;;;;;8.30;5.20;;;;;;;;;;10294586;28;20519;-81
2022/10/18 23:42:11;;;;;;;12.30;4.75;;;;;;;;;;10293126;28;20460;-78
2022/10/18 23:47:11;;;;;;;9.48;5.72;;;;;;;;;;10325585;28;20025;-84
2022/10/18 23:52:11;;;;;;;11.10;5.80;;;;;;;;;;10298178;28;20030;-79
2022/10/18 23:57:11;;;;;;;14.82;5.85;;;;;;;;;;10364259;28;20555;-80
